Latest Weather Observations for Gelantipy

IDV60801

Issued at 9:22 pm EDT Tuesday 26 March 2019 (issued every 10 minutes, with the page automatically refreshed every 10 minutes)

About weather observations | Map of weather stations | Latest weather observations for VIC | Other Formats
Station Details ID: 084142 Name: GELANTIPY Lat: -37.22 Lon: 148.26 Height: 755.0 m
Data from the previous 72 hours. | See also: Recent months at Gelantipy
Date/Time
EDT
Temp
°C
App
Temp
°C
Dew
Point
°C
Rel
Hum
%
Delta-T
°C
Wind Press
QNH
hPa
Press
MSL
hPa
Rain since
9am
mm
Dir  Spd
km/h
Gust
km/h
Spd
kts
Gust
kts
26/09:00pm 9.1 6.4 3.5 68 2.5 SSW 7 11 4 6 1022.5 1020.6 0.0
26/08:30pm 9.4 6.6 3.4 66 2.7 S 7 9 4 5 1021.9 1019.9 0.0
26/08:00pm 10.3 7.6 3.6 63 3.1 SSW 7 15 4 8 1021.4 1019.4 0.0
26/07:30pm 10.8 7.7 3.6 61 3.3 SSW 9 17 5 9 1020.7 1018.7 0.0
26/07:00pm 11.7 8.7 4.0 59 3.6 S 9 15 5 8 1020.1 1018.0 0.0
26/06:30pm 12.7 8.8 3.6 54 4.3 S 13 22 7 12 1019.5 1017.5 0.0
26/06:00pm 13.9 9.9 3.1 48 5.0 SSW 13 19 7 10 1019.1 1017.1 0.0
26/05:30pm 14.9 10.5 2.8 44 5.7 S 15 24 8 13 1018.5 1016.4 0.0
26/05:00pm 15.6 10.8 2.4 41 6.1 SW 17 32 9 17 1018.1 1016.1 0.0
26/04:30pm 15.6 11.2 2.7 42 6.1 SSW 15 28 8 15 1017.8 1015.8 0.0
26/04:00pm 15.8 10.8 1.5 38 6.5 SSW 17 32 9 17 1017.6 1015.5 0.0
26/03:30pm 15.2 9.3 1.4 39 6.3 SW 22 35 12 19 1017.5 1015.4 0.0
26/03:00pm 15.3 9.8 2.1 41 6.1 SSW 20 32 11 17 1017.4 1015.3 0.0
26/02:30pm 16.2 10.5 2.9 41 6.3 WSW 22 35 12 19 1017.4 1015.3 0.0
26/02:00pm 14.7 7.5 0.5 38 6.3 WSW 28 43 15 23 1017.4 1015.3 0.0
26/01:30pm 14.0 8.4 1.0 41 5.8 SW 20 32 11 17 1017.4 1015.3 0.0
26/01:00pm 14.5 8.9 1.4 41 5.9 SW 20 43 11 23 1017.3 1015.2 0.0
26/12:30pm 13.6 7.3 1.3 43 5.5 WSW 24 32 13 17 1017.1 1015.0 0.0
26/12:00pm 12.8 5.5 0.2 42 5.5 W 28 46 15 25 1017.0 1014.9 0.0
26/11:30am 12.4 6.2 2.0 49 4.7 WSW 24 33 13 18 1017.0 1014.9 0.0
26/11:00am 11.7 4.6 1.6 50 4.5 W 28 41 15 22 1016.5 1014.4 0.0
26/10:31am 10.9 3.3 0.3 48 4.5 WSW 30 50 16 27 1016.3 1014.2 0.0
26/10:30am 11.0 3.4 0.7 49 4.5 WSW 30 46 16 25 1016.2 1014.1 0.0
26/10:20am 10.6 2.9 -0.2 47 4.6 W 30 48 16 26 1016.2 1014.1 0.0
26/10:00am 10.5 4.4 0.3 49 4.3 W 22 39 12 21 1016.3 1014.2 0.0
26/09:30am 9.7 4.0 -0.8 48 4.3 WNW 19 28 10 15 1015.9 1013.8 0.0
26/09:00am 9.2 3.7 0.6 55 3.6 W 19 28 10 15 1015.4 1013.4 0.0
26/08:30am 8.4 2.7 -0.6 53 3.7 WNW 19 30 10 16 1015.2 1013.1 0.0
26/08:00am 7.7 1.8 -0.8 55 3.4 WNW 20 33 11 18 1014.8 1012.7 0.0
26/07:30am 7.2 0.9 -1.0 56 3.3 W 22 32 12 17 1014.4 1012.3 0.0
26/07:00am 7.1 0.8 -1.1 56 3.3 W 22 35 12 19 1013.8 1011.7 0.0
26/06:30am 6.8 2.2 -0.9 58 3.1 W 13 28 7 15 1013.4 1011.3 0.0
26/06:00am 7.0 1.1 -0.7 58 3.1 W 20 28 11 15 1013.2 1011.1 0.0
26/05:30am 6.4 2.9 -1.0 59 2.9 W 7 11 4 6 1013.2 1011.1 0.0
26/05:00am 6.8 3.5 0.0 62 2.8 SSE 7 11 4 6 1012.6 1010.5 0.0
26/04:30am 7.3 2.9 0.1 60 3.0 W 13 19 7 10 1012.2 1010.1 0.0
26/04:00am 7.4 2.6 -0.1 59 3.1 W 15 28 8 15 1012.4 1010.3 0.0
26/03:30am 8.1 2.5 0.1 57 3.3 WNW 19 32 10 17 1012.4 1010.3 0.0
26/03:00am 8.8 1.9 0.0 54 3.7 WNW 26 39 14 21 1012.3 1010.2 0.0
26/02:30am 9.1 2.2 0.0 53 3.8 WNW 26 39 14 21 1012.5 1010.4 0.0
26/02:00am 9.4 1.7 -0.2 51 4.0 WNW 30 44 16 24 1012.0 1009.9 0.0
26/01:44am 9.8 2.4 -0.7 48 4.3 WNW 28 46 15 25 1011.9 1009.7 0.0
26/01:30am 9.8 2.8 -0.4 49 4.2 WNW 26 39 14 21 1011.9 1009.7 0.0
26/01:00am 10.1 4.0 0.2 50 4.2 WNW 22 39 12 21 1011.8 1009.6 0.0
26/12:30am 10.0 3.4 -0.2 49 4.3 WNW 24 39 13 21 1011.8 1009.6 0.0
26/12:00am 10.1 4.9 0.2 50 4.2 NW 17 26 9 14 1011.7 1009.5 0.0
 
Date/Time
EDT
Temp
°C
App
Temp
°C
Dew
Point
°C
Rel
Hum
%
Delta-T
°C
Wind Press
QNH
hPa
Press
MSL
hPa
Rain since
9am
mm
Dir  Spd
km/h
Gust
km/h
Spd
kts
Gust
kts
25/11:30pm 9.9 4.4 0.3 51 4.1 NW 19 28 10 15 1011.8 1009.6 0.0
25/11:00pm 10.4 4.7 0.4 50 4.3 WNW 20 35 11 19 1011.9 1009.7 0.0
25/10:30pm 11.0 4.1 0.1 47 4.6 WNW 26 35 14 19 1011.7 1009.5 0.0
25/10:00pm 11.1 4.6 0.5 48 4.6 WNW 24 35 13 19 1011.6 1009.4 0.0
25/09:30pm 11.3 3.3 0.7 48 4.6 WNW 32 46 17 25 1010.9 1008.8 0.0
25/09:00pm 11.4 4.2 0.5 47 4.7 WNW 28 41 15 22 1010.5 1008.3 0.0
25/08:30pm 11.9 4.7 1.0 47 4.8 WNW 28 48 15 26 1010.0 1007.8 0.0
25/08:15pm 12.0 4.9 1.3 48 4.7 WNW 28 48 15 26 1009.8 1007.7 0.0
25/08:00pm 11.4 5.5 1.9 52 4.2 NW 22 33 12 18 1010.0 1007.8 0.0
25/07:30pm 12.1 6.2 2.0 50 4.5 WNW 22 37 12 20 1009.5 1007.3 0.0
25/07:00pm 12.2 7.4 2.4 51 4.5 NW 17 26 9 14 1008.9 1006.7 0.0
25/06:30pm 13.5 6.2 2.4 47 5.1 NW 30 48 16 26 1008.6 1006.4 0.0
25/06:04pm 14.1 7.3 3.0 47 5.2 WNW 28 46 15 25 1008.5 1006.3 0.0
25/06:00pm 14.2 6.7 3.4 48 5.1 WNW 32 46 17 25 1008.3 1006.1 0.0
25/05:30pm 14.7 6.9 2.9 45 5.5 WNW 33 48 18 26 1008.1 1005.9 0.0
25/05:04pm 15.2 8.1 3.4 45 5.6 WNW 30 54 16 29 1007.5 1005.3 0.0
25/05:00pm 15.0 7.9 3.5 46 5.5 NW 30 43 16 23 1007.5 1005.3 0.0
25/04:30pm 16.1 9.3 5.1 48 5.4 NW 30 48 16 26 1006.9 1004.7 0.0
25/04:00pm 16.3 9.0 4.7 46 5.7 WNW 32 56 17 30 1006.6 1004.4 0.0
25/03:30pm 17.2 9.5 5.2 45 6.0 WNW 35 65 19 35 1005.8 1003.5 0.0
25/03:00pm 17.8 9.7 5.4 44 6.3 NW 37 74 20 40 1005.3 1003.1 0.0
25/02:30pm 17.8 9.5 6.0 46 6.0 NW 39 67 21 36 1005.1 1002.9 0.0
25/02:09pm 17.9 8.1 7.0 49 5.7 NW 48 83 26 45 1005.2 1003.0 0.0
25/02:08pm 17.8 8.0 7.0 49 5.6 NW 48 83 26 45 1005.1 1002.9 0.0
25/02:04pm 17.9 9.3 6.7 48 5.8 WNW 41 82 22 44 1005.1 1002.9 0.0
25/02:00pm 17.9 8.8 7.0 49 5.7 WNW 44 80 24 43 1005.3 1003.1 0.0
25/01:57pm 17.8 8.9 6.7 48 5.7 WNW 43 80 23 43 1005.3 1003.1 0.0
25/01:30pm 18.2 9.8 7.3 49 5.7 NW 41 70 22 38 1005.0 1002.8 0.0
25/01:25pm 17.9 9.0 7.6 51 5.4 NW 44 78 24 42 1004.8 - 0.0
25/01:10pm 17.6 7.1 9.0 57 4.6 WNW 54 72 29 39 1005.1 - 0.0
25/01:06pm 17.5 6.5 8.6 56 4.8 WNW 56 72 30 39 1005.2 - 0.0
25/01:05pm 17.7 9.6 8.6 55 4.9 WNW 41 72 22 39 1005.1 1002.9 0.0
25/01:00pm 18.2 11.2 8.5 53 5.2 WNW 35 54 19 29 1004.8 1002.5 0.0
25/12:30pm 19.6 12.9 11.1 58 4.8 NW 37 57 20 31 1004.7 1002.4 0.0
25/12:00pm 19.6 10.2 10.0 54 5.4 NW 50 78 27 42 1004.1 1001.9 0.0
25/11:52am 19.5 10.9 10.2 55 5.2 NW 46 78 25 42 1003.9 1001.7 0.0
25/11:51am 19.7 11.0 10.1 54 5.3 NW 46 78 25 42 1003.7 1001.4 0.0
25/11:30am 20.0 13.7 11.0 56 5.1 NNW 35 59 19 32 1003.5 1001.2 0.0
25/11:00am 20.1 14.9 12.8 63 4.3 NW 32 54 17 29 1004.3 1002.0 0.0
25/10:30am 18.4 13.2 12.8 70 3.3 NW 32 56 17 30 1004.3 1002.0 0.0
25/10:03am 20.6 15.1 12.3 59 4.8 WNW 33 56 18 30 1003.4 1001.1 0.0
25/10:00am 20.9 15.4 11.8 56 5.3 WNW 32 48 17 26 1003.4 1001.1 0.0
25/09:30am 20.8 14.8 12.0 57 5.1 NW 35 57 19 31 1003.0 1000.7 0.0
25/09:00am 20.5 15.2 11.2 55 5.3 NW 30 52 16 28 1003.1 1000.8 0.0
25/08:30am 19.9 14.2 11.7 59 4.7 NW 33 54 18 29 1002.7 1000.5 0.0
25/08:00am 19.3 14.4 11.3 60 4.6 NW 28 50 15 27 1002.4 1000.1 0.0
25/07:30am 19.1 13.4 11.2 60 4.5 NNW 32 57 17 31 1002.2 999.9 0.0
25/07:00am 19.1 12.8 10.9 59 4.6 NW 35 57 19 31 1002.2 999.9 0.0
25/06:32am 19.4 10.7 11.2 59 4.7 NW 48 70 26 38 1002.2 999.9 0.0
25/06:30am 19.6 10.8 11.1 58 4.8 NW 48 70 26 38 1002.0 999.7 0.0
25/06:29am 19.6 10.8 11.1 58 4.8 NW 48 70 26 38 1001.7 999.4 0.0
25/06:00am 19.6 13.0 11.4 59 4.7 NW 37 63 20 34 1001.7 999.4 0.0
25/05:41am 19.8 12.4 11.3 58 4.8 NW 41 83 22 45 1001.1 998.8 0.0
25/05:30am 19.8 13.5 11.0 57 5.0 NW 35 57 19 31 1001.1 998.8 0.0
25/05:00am 20.3 11.1 11.0 55 5.3 NW 50 69 27 37 999.9 997.6 0.0
25/04:30am 19.9 11.8 12.2 61 4.5 NW 46 76 25 41 999.5 997.2 0.0
25/04:00am 19.5 12.1 12.5 64 4.1 NW 43 76 23 41 999.8 997.5 0.0
25/03:30am 19.7 13.2 12.9 65 4.0 NW 39 70 21 38 1000.6 998.3 0.0
25/03:00am 19.6 14.3 13.1 66 3.8 NNW 33 65 18 35 1001.0 998.7 0.0
25/02:30am 19.7 14.1 13.2 66 3.8 NW 35 61 19 33 1001.5 999.2 0.0
25/02:25am 19.7 13.7 13.4 67 3.7 NW 37 61 20 33 1001.7 - 0.0
25/02:06am 19.9 15.6 13.1 65 4.0 NNW 28 54 15 29 1002.0 999.7 0.0
25/02:00am 19.8 16.9 13.0 65 4.0 NNW 20 46 11 25 1002.2 999.9 0.0
25/01:30am 19.8 15.4 12.8 64 4.1 NNW 28 56 15 30 1002.5 1000.2 0.0
25/01:00am 19.8 15.4 12.8 64 4.1 N 28 56 15 30 1003.1 1000.8 0.0
25/12:56am 19.8 15.4 12.8 64 4.1 N 28 48 15 26 1003.5 - 0.0
25/12:55am 19.9 15.4 12.7 63 4.2 N 28 48 15 26 1003.5 1001.2 0.0
25/12:30am 20.0 16.3 12.7 63 4.3 NNW 24 39 13 21 1004.5 1002.2 0.0
25/12:00am 19.8 16.7 13.3 66 3.8 N 22 43 12 23 1004.9 1002.6 0.0
 
Date/Time
EDT
Temp
°C
App
Temp
°C
Dew
Point
°C
Rel
Hum
%
Delta-T
°C
Wind Press
QNH
hPa
Press
MSL
hPa
Rain since
9am
mm
Dir  Spd
km/h
Gust
km/h
Spd
kts
Gust
kts
24/11:30pm 20.1 17.0 13.3 65 4.0 NNW 22 35 12 19 1005.7 1003.4 0.0
24/11:00pm 19.0 16.3 13.4 70 3.3 NNW 20 33 11 18 1006.4 1004.2 0.0
24/10:30pm 19.1 15.7 13.7 71 3.2 N 24 35 13 19 1006.5 1004.3 0.0
24/10:00pm 19.4 14.3 13.6 69 3.4 N 33 50 18 27 1006.8 1004.6 0.0
24/09:49pm 19.2 14.2 13.4 69 3.4 N 32 44 17 24 1007.3 1005.0 0.0
24/09:30pm 19.7 17.1 13.2 66 3.8 NNW 19 26 10 14 1007.3 1005.0 0.0
24/09:00pm 19.5 15.6 13.2 67 3.7 NNW 26 43 14 23 1007.6 1005.4 0.0
24/08:30pm 19.8 17.7 13.5 67 3.7 NNW 17 28 9 15 1007.7 1005.5 0.0
24/08:00pm 19.5 17.5 13.9 70 3.3 N 17 26 9 14 1008.0 1005.8 0.0
24/07:30pm 19.6 16.1 13.5 68 3.6 N 24 32 13 17 1008.0 1005.8 0.0
24/07:00pm 20.1 17.5 13.1 64 4.1 N 19 30 10 16 1008.0 1005.8 0.0
24/06:30pm 20.2 18.2 12.7 62 4.4 N 15 20 8 11 1008.3 1006.1 0.0
24/06:00pm 20.4 18.9 13.1 63 4.3 NNE 13 20 7 11 1008.6 1006.4 0.0
24/05:30pm 20.9 19.2 12.6 59 4.9 NNW 13 26 7 14 1008.9 1006.7 0.0
24/05:00pm 21.3 18.8 12.2 56 5.3 NNW 17 26 9 14 1009.1 1006.9 0.0
24/04:30pm 20.8 20.0 15.1 70 3.5 NNE 13 17 7 9 1009.2 1007.0 0.0
24/04:00pm 20.6 18.7 15.2 71 3.3 NNE 19 22 10 12 1009.5 1007.3 0.0
24/03:30pm 20.9 19.5 14.5 67 3.9 NNE 15 19 8 10 1009.5 1007.3 0.0
24/03:00pm 21.1 19.7 14.5 66 4.0 NNE 15 22 8 12 1010.0 1007.8 0.0
24/02:30pm 21.1 19.1 14.0 64 4.3 NNE 17 24 9 13 1010.4 1008.2 0.0
24/02:00pm 20.5 18.7 15.5 73 3.1 NNE 19 24 10 13 1010.9 1008.8 0.0
24/01:30pm 19.0 18.0 14.5 75 2.7 NE 13 17 7 9 1011.4 1009.2 0.0
24/01:00pm 19.2 18.2 14.7 75 2.7 NE 13 17 7 9 1011.9 1009.7 0.0
24/12:30pm 19.3 17.6 13.5 69 3.4 NNE 15 19 8 10 1012.4 1010.3 0.0
24/12:00pm 18.7 17.1 12.9 69 3.4 NNE 13 20 7 11 1012.5 1010.4 0.0
24/11:30am 17.9 16.3 13.8 77 2.4 NNE 15 19 8 10 1013.4 1011.3 0.0
24/11:00am 18.2 16.2 12.6 70 3.2 NNE 15 20 8 11 1013.5 1011.4 0.0
24/10:30am 18.3 17.0 13.6 74 2.8 NNE 13 17 7 9 1013.7 1011.6 0.0
24/10:00am 16.5 15.6 13.6 83 1.7 NNE 11 13 6 7 1014.2 1012.0 0.0
24/09:30am 15.5 14.4 13.0 85 1.4 NNE 11 13 6 7 1014.0 1011.9 0.0
24/09:00am 15.6 14.0 12.9 84 1.6 N 13 17 7 9 1013.5 1011.4 1.2
24/08:30am 15.4 13.1 13.1 86 1.3 N 17 20 9 11 1013.0 1010.8 1.2
24/08:00am 15.6 12.6 12.7 83 1.7 N 20 28 11 15 1012.6 1010.5 1.2
24/07:30am 17.5 13.6 12.0 70 3.1 N 24 32 13 17 1012.5 1010.4 1.2
24/07:00am 16.6 14.3 12.9 79 2.1 N 17 22 9 12 1012.6 1010.5 1.2
24/06:30am 14.6 11.9 13.6 94 0.6 N 20 24 11 13 1012.8 1010.6 1.2
24/06:00am 13.9 12.5 13.3 96 0.3 NNE 13 17 7 9 1012.8 1010.6 1.2
24/05:30am 13.6 13.3 13.3 98 0.2 N 7 11 4 6 1012.8 1010.6 1.2
24/05:00am 13.8 14.8 13.3 97 0.3 CALM 0 0 0 0 1013.1 1010.9 1.2
24/04:30am 14.0 15.1 13.5 97 0.3 CALM 0 6 0 3 1012.9 1010.7 1.2
24/04:00am 14.1 14.1 13.5 96 0.3 SW 6 7 3 4 1012.6 1010.5 1.2
24/03:30am 14.4 14.2 13.6 95 0.5 WSW 7 9 4 5 1012.8 1010.6 1.2
24/03:00am 14.8 15.1 13.5 92 0.8 SSW 4 7 2 4 1012.5 1010.4 1.2
24/02:30am 15.3 14.6 13.2 87 1.2 SW 9 13 5 7 1012.5 1010.4 1.2
24/02:00am 16.7 15.9 11.8 73 2.8 WSW 7 11 4 6 1012.4 1010.3 1.2
24/01:30am 16.8 16.3 12.1 74 2.7 ENE 6 9 3 5 1012.2 1010.1 1.2
24/01:00am 17.6 16.5 12.1 70 3.1 NNE 9 13 5 7 1011.9 1009.7 1.2
24/12:30am 16.9 15.4 11.8 72 2.9 NNE 11 15 6 8 1011.9 1009.7 1.2
24/12:00am 17.7 16.2 11.9 69 3.3 N 11 19 6 10 1012.1 1010.0 1.2
 
Date/Time
EDT
Temp
°C
App
Temp
°C
Dew
Point
°C
Rel
Hum
%
Delta-T
°C
Wind Press
QNH
hPa
Press
MSL
hPa
Rain since
9am
mm
Dir  Spd
km/h
Gust
km/h
Spd
kts
Gust
kts
23/11:30pm 17.3 16.2 11.8 70 3.1 N 9 11 5 6 1012.4 1010.3 1.2
23/11:00pm 16.6 15.7 11.3 71 3.0 N 7 11 4 6 1012.2 1010.1 1.2
23/10:30pm 16.6 15.4 11.7 73 2.8 N 9 17 5 9 1012.0 1009.9 1.2
23/10:00pm 16.3 15.2 10.8 70 3.1 NW 7 17 4 9 1012.0 1009.9 1.2
23/09:30pm 16.4 15.3 12.0 75 2.5 NNE 9 11 5 6 1011.9 1009.7 1.2

Other formats

Comma delimited format used in spreadsheet applications
http://www.bom.gov.au/fwo/IDV60801/IDV60801.94913.axf

JavaScript Object Notation format (JSON) in row-major order
http://www.bom.gov.au/fwo/IDV60801/IDV60801.94913.json

Data quality

Most of these data are generated automatically and are frequently updated. Quality checks on data are not normally performed. It is possible for incorrect values to appear. Refer to information at About Latest Weather Observations and please check the disclaimer before using these data.